Time;durP1;ratioP1;P1;durP2;ratioP2;P2;SDS_P1;SDS_P2;PMS_P1;PMS_P2;Temp;Humidity;BMP_temperature;BMP_pressure;BME280_temperature;BME280_humidity;BME280_pressure;Samples;Min_cycle;Max_cycle;Signal;HPM_P1;HPM_P2
2022/09/02 00:01:37;;;;;;;17.80;14.45;;;21.90;99.90;;;;;;5087707;28;20205;-72
2022/09/02 00:04:20;;;;;;;22.63;15.60;;;21.90;99.90;;;;;;5089592;28;20193;-72
2022/09/02 00:06:49;;;;;;;22.42;15.85;;;21.90;99.90;;;;;;5091429;28;20189;-72
2022/09/02 00:09:20;;;;;;;20.45;15.63;;;21.90;99.90;;;;;;5123804;27;20750;-72
2022/09/02 00:11:49;;;;;;;20.67;15.05;;;21.90;99.90;;;;;;5114515;27;20190;-72
2022/09/02 00:14:31;;;;;;;21.45;15.50;;;21.80;99.90;;;;;;5088213;28;20531;-72
2022/09/02 00:16:59;;;;;;;20.13;14.65;;;21.80;99.90;;;;;;5095476;28;20222;-72
2022/09/02 00:19:28;;;;;;;22.67;14.55;;;21.80;99.90;;;;;;5089206;28;20186;-72
2022/09/02 00:21:57;;;;;;;18.23;15.45;;;21.80;99.90;;;;;;5083946;28;20910;-72
2022/09/02 00:24:25;;;;;;;19.13;14.90;;;21.80;99.90;;;;;;5089035;28;20251;-72
2022/09/02 00:26:51;;;;;;;17.38;14.55;;;21.80;99.90;;;;;;5090844;28;20280;-72
2022/09/02 00:29:18;;;;;;;17.95;14.73;;;21.70;99.90;;;;;;5088489;28;20205;-72
2022/09/02 00:31:46;;;;;;;23.02;14.90;;;21.70;99.90;;;;;;5088984;28;20194;-72
2022/09/02 00:34:14;;;;;;;16.67;14.57;;;21.80;99.90;;;;;;5081207;28;20586;-72
2022/09/02 00:36:40;;;;;;;21.92;14.98;;;21.70;99.90;;;;;;5117860;27;20199;-72
2022/09/02 00:39:08;;;;;;;22.02;14.45;;;21.70;99.90;;;;;;5088055;28;20232;-72
2022/09/02 00:41:38;;;;;;;19.90;14.80;;;21.70;99.90;;;;;;5089013;28;20186;-72
2022/09/02 00:44:12;;;;;;;18.90;15.05;;;21.70;99.90;;;;;;5083094;28;20178;-70
2022/09/02 00:46:39;;;;;;;21.57;15.17;;;21.70;99.90;;;;;;5090520;28;20188;-72
2022/09/02 00:49:15;;;;;;;23.57;15.67;;;21.70;99.90;;;;;;5086520;28;20536;-72
2022/09/02 00:51:54;;;;;;;23.55;15.95;;;21.70;99.90;;;;;;5081134;28;20194;-72
2022/09/02 00:54:24;;;;;;;19.63;15.57;;;21.70;99.90;;;;;;5094024;28;20586;-72
2022/09/02 00:56:52;;;;;;;21.67;15.23;;;21.70;99.90;;;;;;5085167;28;20210;-72
2022/09/02 00:59:50;;;;;;;18.70;15.35;;;21.70;99.90;;;;;;5085344;28;20250;-72
2022/09/02 01:02:17;;;;;;;18.92;15.68;;;21.70;99.90;;;;;;5082081;28;20178;-72
2022/09/02 01:04:45;;;;;;;22.33;15.13;;;21.60;99.90;;;;;;5089071;28;20178;-70
2022/09/02 01:07:12;;;;;;;18.38;15.35;;;21.60;99.90;;;;;;5122206;27;20201;-72
2022/09/02 01:09:39;;;;;;;23.47;15.60;;;21.60;99.90;;;;;;5087649;28;20251;-72
2022/09/02 01:12:06;;;;;;;22.88;15.52;;;21.60;99.90;;;;;;5086308;28;20297;-72
2022/09/02 01:14:34;;;;;;;21.07;16.23;;;21.60;99.90;;;;;;5087731;28;20193;-72
2022/09/02 01:17:02;;;;;;;17.00;14.63;;;21.60;99.90;;;;;;5088548;28;20668;-72
2022/09/02 01:19:39;;;;;;;18.23;14.90;;;21.50;99.90;;;;;;5087844;28;20190;-72
2022/09/02 01:22:34;;;;;;;20.98;15.27;;;21.50;99.90;;;;;;5101067;27;20206;-72
2022/09/02 01:25:13;;;;;;;19.92;15.25;;;21.50;99.90;;;;;;5101068;28;20252;-72
2022/09/02 01:27:40;;;;;;;23.13;15.77;;;21.50;99.90;;;;;;5086101;28;20194;-72
2022/09/02 01:30:12;;;;;;;24.73;16.35;;;21.50;99.90;;;;;;5082151;28;20186;-72
2022/09/02 01:32:39;;;;;;;20.97;15.70;;;21.40;99.90;;;;;;5104978;28;20243;-72
2022/09/02 01:35:07;;;;;;;18.90;15.07;;;21.40;99.90;;;;;;5086052;28;20247;-72
2022/09/02 01:37:33;;;;;;;24.13;16.20;;;21.30;99.90;;;;;;5082341;28;20253;-72
2022/09/02 01:40:00;;;;;;;25.98;16.10;;;21.30;99.90;;;;;;5119238;27;20641;-71
2022/09/02 01:42:27;;;;;;;20.83;15.57;;;21.30;99.90;;;;;;5089498;28;20190;-71
2022/09/02 01:44:54;;;;;;;22.30;16.40;;;21.40;99.90;;;;;;5088345;28;20713;-71
2022/09/02 01:47:24;;;;;;;21.23;15.90;;;21.40;99.90;;;;;;5116875;27;20190;-71
2022/09/02 01:49:51;;;;;;;23.50;15.67;;;21.40;99.90;;;;;;5100305;28;20205;-71
2022/09/02 01:52:21;;;;;;;20.38;16.20;;;21.30;99.90;;;;;;5087155;28;20221;-71
2022/09/02 01:54:48;;;;;;;21.67;15.30;;;21.30;99.90;;;;;;5086434;28;20216;-71
2022/09/02 01:57:15;;;;;;;23.17;15.60;;;21.30;99.90;;;;;;5119573;27;20853;-71
2022/09/02 01:59:45;;;;;;;21.17;15.85;;;21.30;99.90;;;;;;5085124;28;20315;-71
2022/09/02 02:02:12;;;;;;;21.90;16.02;;;21.30;99.90;;;;;;5101004;28;20259;-71
2022/09/02 02:04:39;;;;;;;20.10;14.63;;;21.30;99.90;;;;;;5076227;28;20180;-71
2022/09/02 02:07:06;;;;;;;22.98;16.13;;;21.30;99.90;;;;;;5084613;28;20182;-71
2022/09/02 02:09:33;;;;;;;22.88;15.52;;;21.30;99.90;;;;;;5088492;28;20186;-71
2022/09/02 02:11:59;;;;;;;19.00;15.60;;;21.20;99.90;;;;;;5084568;28;20190;-71
2022/09/02 02:14:25;;;;;;;20.30;15.80;;;21.20;99.90;;;;;;5088921;28;20734;-71
2022/09/02 02:16:52;;;;;;;19.70;15.32;;;21.20;99.90;;;;;;5081385;28;20218;-71
2022/09/02 02:19:18;;;;;;;22.03;15.13;;;21.10;99.90;;;;;;5084570;28;20205;-71
2022/09/02 02:21:46;;;;;;;20.02;16.13;;;21.10;99.90;;;;;;5100064;28;20236;-71
2022/09/02 02:24:13;;;;;;;22.92;16.50;;;21.10;99.90;;;;;;5077775;28;20343;-71
2022/09/02 02:26:39;;;;;;;18.67;16.47;;;21.10;99.90;;;;;;5083803;28;20201;-71
2022/09/02 02:29:06;;;;;;;21.00;16.00;;;21.10;99.90;;;;;;5079600;28;20186;-71
2022/09/02 02:31:36;;;;;;;20.83;16.70;;;21.10;99.90;;;;;;5086221;28;20190;-71
2022/09/02 02:34:03;;;;;;;23.17;16.07;;;21.10;99.90;;;;;;5108879;27;20221;-71
2022/09/02 02:36:30;;;;;;;18.97;15.60;;;21.10;99.90;;;;;;5075788;28;20218;-71
2022/09/02 02:38:57;;;;;;;20.00;17.07;;;21.10;99.90;;;;;;5088626;28;20182;-71
2022/09/02 02:41:24;;;;;;;23.05;16.63;;;21.10;99.90;;;;;;5066749;28;20178;-71
2022/09/02 02:43:51;;;;;;;18.13;15.82;;;21.10;99.90;;;;;;5088410;28;20235;-71
2022/09/02 02:46:17;;;;;;;22.38;16.80;;;21.00;99.90;;;;;;5100149;28;20274;-71
2022/09/02 02:48:44;;;;;;;17.33;15.30;;;21.00;99.90;;;;;;5097168;28;20277;-71
2022/09/02 02:51:11;;;;;;;18.98;15.77;;;21.10;99.90;;;;;;5113551;27;20683;-71
2022/09/02 02:53:37;;;;;;;17.97;15.83;;;21.10;99.90;;;;;;5087754;28;20246;-71
2022/09/02 02:56:07;;;;;;;21.70;18.20;;;21.10;99.90;;;;;;5085226;28;20259;-71
2022/09/02 02:58:34;;;;;;;24.97;16.33;;;21.10;99.90;;;;;;5082989;28;20244;-71
2022/09/02 03:01:01;;;;;;;18.07;15.17;;;21.10;99.90;;;;;;5088425;28;20182;-71
2022/09/02 03:03:28;;;;;;;19.90;15.35;;;21.10;99.90;;;;;;5122590;27;20188;-71
2022/09/02 03:05:54;;;;;;;18.63;16.23;;;21.00;99.90;;;;;;5087724;28;20269;-71
2022/09/02 03:08:21;;;;;;;21.17;14.80;;;20.90;99.90;;;;;;5115102;27;20588;-71
2022/09/02 03:10:53;;;;;;;17.58;15.25;;;20.50;99.90;;;;;;5082243;28;20237;-71
2022/09/02 03:13:22;;;;;;;18.83;14.50;;;20.60;99.90;;;;;;5112014;27;20255;-71
2022/09/02 03:15:52;;;;;;;18.53;13.70;;;20.70;99.90;;;;;;5080459;28;20213;-71
2022/09/02 03:18:19;;;;;;;15.63;12.20;;;20.50;99.90;;;;;;5098271;28;20186;-71
2022/09/02 03:20:45;;;;;;;16.10;12.80;;;20.30;99.90;;;;;;5081756;28;20185;-71
2022/09/02 03:23:12;;;;;;;18.13;11.80;;;20.20;99.90;;;;;;5090547;28;20695;-71
2022/09/02 03:25:43;;;;;;;15.67;12.40;;;20.00;99.90;;;;;;5106917;28;20186;-71
2022/09/02 03:28:11;;;;;;;15.17;12.00;;;20.10;99.90;;;;;;5109252;28;20192;-71
2022/09/02 03:30:40;;;;;;;20.13;12.53;;;20.10;99.90;;;;;;5073413;28;20685;-71
2022/09/02 03:33:07;;;;;;;14.53;12.97;;;20.00;99.90;;;;;;5089860;28;20222;-71
2022/09/02 03:35:40;;;;;;;17.90;13.63;;;19.90;99.90;;;;;;5089295;28;20222;-71
2022/09/02 03:38:09;;;;;;;16.00;14.03;;;19.90;99.90;;;;;;5090813;28;20197;-71
2022/09/02 03:40:36;;;;;;;14.70;13.20;;;19.90;99.90;;;;;;5115682;27;20177;-71
2022/09/02 03:43:03;;;;;;;14.97;13.00;;;19.90;99.90;;;;;;5124672;27;20300;-71
2022/09/02 03:45:31;;;;;;;18.27;13.67;;;20.00;99.90;;;;;;5092185;28;20186;-71
2022/09/02 03:47:58;;;;;;;15.97;14.23;;;19.90;99.90;;;;;;5083078;28;20201;-71
2022/09/02 03:50:31;;;;;;;14.97;13.53;;;19.80;99.90;;;;;;5091802;28;20186;-71
2022/09/02 03:52:59;;;;;;;15.50;13.87;;;19.70;99.90;;;;;;5090233;28;20272;-71
2022/09/02 03:55:26;;;;;;;18.47;13.90;;;19.70;99.90;;;;;;5088257;28;20190;-71
2022/09/02 03:57:53;;;;;;;20.03;13.80;;;19.60;99.90;;;;;;5090645;28;20213;-71
2022/09/02 04:00:27;;;;;;;15.73;14.13;;;19.70;99.90;;;;;;5091499;28;20702;-71
2022/09/02 04:02:55;;;;;;;16.43;13.53;;;19.70;99.90;;;;;;5095437;28;20284;-71
2022/09/02 04:05:22;;;;;;;16.43;14.70;;;19.60;99.90;;;;;;5105282;28;20183;-71
2022/09/02 04:07:51;;;;;;;17.63;14.10;;;19.60;99.90;;;;;;5079452;28;20200;-71
2022/09/02 04:10:20;;;;;;;17.60;13.97;;;19.60;99.90;;;;;;5092576;28;20186;-71
2022/09/02 04:12:48;;;;;;;15.57;14.10;;;19.60;99.90;;;;;;5083757;28;20182;-71
2022/09/02 04:15:14;;;;;;;17.97;13.90;;;19.70;99.90;;;;;;5092187;28;20289;-71
2022/09/02 04:17:42;;;;;;;16.50;14.30;;;19.60;99.90;;;;;;5091189;28;20214;-71
2022/09/02 04:20:12;;;;;;;15.43;13.80;;;19.70;99.90;;;;;;5085788;28;20204;-71
2022/09/02 04:22:39;;;;;;;16.00;14.33;;;19.80;99.90;;;;;;5088805;28;20192;-71
2022/09/02 04:25:08;;;;;;;15.70;14.10;;;19.90;99.90;;;;;;5090263;28;20182;-71
2022/09/02 04:27:35;;;;;;;16.63;14.23;;;19.90;99.90;;;;;;5089343;28;20278;-71
2022/09/02 04:30:03;;;;;;;19.83;14.97;;;19.90;99.90;;;;;;5092446;28;20591;-71
2022/09/02 04:32:31;;;;;;;19.50;14.40;;;20.00;99.90;;;;;;5108319;28;20185;-71
2022/09/02 04:35:00;;;;;;;16.37;14.00;;;20.00;99.90;;;;;;5085681;28;20509;-71
2022/09/02 04:37:27;;;;;;;15.93;14.33;;;20.00;99.90;;;;;;5111050;27;20660;-71
2022/09/02 04:39:53;;;;;;;16.60;14.60;;;20.00;99.90;;;;;;5089561;28;20477;-71
2022/09/02 04:42:20;;;;;;;19.57;14.40;;;20.10;99.90;;;;;;5087677;28;20652;-71
2022/09/02 04:44:46;;;;;;;18.10;13.67;;;20.20;99.90;;;;;;5072163;28;20182;-71
2022/09/02 04:47:14;;;;;;;14.67;13.17;;;20.20;99.90;;;;;;5107745;28;20543;-71
2022/09/02 04:49:40;;;;;;;17.00;14.13;;;20.30;99.90;;;;;;5092112;28;20216;-71
2022/09/02 04:52:09;;;;;;;17.40;13.40;;;20.40;99.90;;;;;;5083958;28;20198;-71
2022/09/02 04:54:37;;;;;;;15.87;14.17;;;20.40;99.90;;;;;;5091970;28;20261;-71
2022/09/02 04:57:04;;;;;;;19.50;13.30;;;20.50;99.90;;;;;;5088023;28;20210;-71
2022/09/02 04:59:35;;;;;;;15.00;13.07;;;20.60;99.90;;;;;;5097006;28;20244;-71
2022/09/02 05:02:03;;;;;;;17.67;13.53;;;20.60;99.90;;;;;;5086431;28;20197;-71
2022/09/02 05:04:30;;;;;;;14.73;12.53;;;20.70;99.90;;;;;;5088203;28;20190;-71
2022/09/02 05:07:00;;;;;;;14.33;12.93;;;20.70;99.90;;;;;;5070374;28;20178;-71
2022/09/02 05:09:28;;;;;;;14.83;12.70;;;20.80;99.90;;;;;;5089998;28;20275;-71
2022/09/02 05:11:58;;;;;;;15.27;13.33;;;20.90;99.90;;;;;;5090283;28;20722;-71
2022/09/02 05:14:25;;;;;;;15.67;12.80;;;21.00;99.90;;;;;;5101179;28;20189;-71
2022/09/02 05:16:55;;;;;;;16.27;12.30;;;21.00;99.90;;;;;;5089735;28;20210;-71
2022/09/02 05:19:24;;;;;;;15.50;12.30;;;21.10;99.90;;;;;;5097494;28;20191;-71
2022/09/02 05:21:56;;;;;;;14.93;13.17;;;21.10;99.90;;;;;;5090993;28;20186;-71
2022/09/02 05:24:23;;;;;;;15.50;13.40;;;21.10;99.90;;;;;;5087496;28;20594;-71
2022/09/02 05:26:49;;;;;;;14.70;13.30;;;21.20;99.90;;;;;;5091367;28;20193;-71
2022/09/02 05:29:19;;;;;;;14.67;13.07;;;21.20;99.90;;;;;;5091388;28;20250;-71
2022/09/02 05:31:47;;;;;;;16.73;13.82;;;21.20;99.90;;;;;;5086281;28;20182;-71
2022/09/02 05:34:15;;;;;;;15.90;13.77;;;21.30;99.90;;;;;;5114891;27;20644;-71
2022/09/02 05:36:42;;;;;;;14.33;12.93;;;21.40;99.90;;;;;;5093966;28;20231;-71
2022/09/02 05:39:09;;;;;;;14.77;12.73;;;21.40;99.90;;;;;;5078416;28;20283;-71
2022/09/02 05:41:36;;;;;;;16.60;12.10;;;21.50;99.90;;;;;;5085839;28;20197;-71
2022/09/02 05:44:05;;;;;;;12.10;10.93;;;21.50;99.90;;;;;;5106892;28;20181;-71
2022/09/02 05:46:32;;;;;;;15.00;11.10;;;21.60;99.90;;;;;;5087869;28;20250;-71
2022/09/02 05:49:05;;;;;;;12.27;11.15;;;21.60;99.90;;;;;;5116665;27;20179;-71
2022/09/02 05:51:57;;;;;;;11.97;10.70;;;21.60;99.90;;;;;;5086247;28;20257;-71
2022/09/02 05:54:34;;;;;;;14.30;10.23;;;21.70;99.90;;;;;;5085300;28;20222;-71
2022/09/02 05:57:12;;;;;;;15.63;10.23;;;21.70;99.90;;;;;;5069511;28;20201;-71
2022/09/02 05:59:41;;;;;;;11.70;9.53;;;21.80;99.90;;;;;;5088452;28;20190;-71
2022/09/02 06:02:14;;;;;;;12.65;9.95;;;21.80;99.90;;;;;;5085737;28;20182;-71
2022/09/02 06:04:48;;;;;;;13.90;10.30;;;21.90;99.90;;;;;;5088058;28;20274;-71
2022/09/02 06:07:17;;;;;;;16.10;10.07;;;22.00;99.90;;;;;;5114465;27;20186;-71
2022/09/02 06:09:45;;;;;;;11.05;9.93;;;22.00;99.90;;;;;;5084947;28;20182;-71
2022/09/02 06:12:14;;;;;;;10.60;9.35;;;22.10;99.90;;;;;;5088613;28;20255;-71
2022/09/02 06:14:41;;;;;;;22.07;10.43;;;22.20;99.90;;;;;;5070699;28;20588;-71
2022/09/02 06:17:08;;;;;;;13.57;9.80;;;22.30;99.90;;;;;;5115037;27;20212;-71
2022/09/02 06:19:35;;;;;;;10.50;9.07;;;22.30;99.90;;;;;;5079199;28;20225;-71
2022/09/02 06:22:04;;;;;;;10.65;8.85;;;22.40;99.90;;;;;;5089989;28;20269;-71
2022/09/02 06:24:31;;;;;;;12.43;9.40;;;22.50;99.90;;;;;;5069455;28;20255;-71
2022/09/02 06:27:00;;;;;;;12.20;8.77;;;22.60;99.90;;;;;;5089977;28;20179;-71
2022/09/02 06:29:27;;;;;;;10.15;8.50;;;22.70;99.90;;;;;;5088598;28;20186;-71
2022/09/02 06:31:54;;;;;;;10.20;7.60;;;22.70;99.90;;;;;;5121544;27;20531;-71
2022/09/02 06:34:25;;;;;;;11.07;7.63;;;23.00;99.90;;;;;;5085564;28;20188;-71
2022/09/02 06:36:52;;;;;;;11.38;7.75;;;23.10;99.90;;;;;;5086253;28;20228;-71
2022/09/02 06:39:21;;;;;;;8.95;7.72;;;23.10;99.90;;;;;;5064463;28;20251;-71
2022/09/02 06:41:48;;;;;;;9.85;7.90;;;23.20;99.90;;;;;;5090003;28;20254;-71
2022/09/02 06:44:16;;;;;;;10.02;7.60;;;23.20;99.90;;;;;;5090127;28;20214;-71
2022/09/02 06:46:47;;;;;;;10.10;7.20;;;23.30;99.90;;;;;;5070429;28;20186;-71
2022/09/02 06:49:15;;;;;;;8.93;8.02;;;23.30;99.90;;;;;;5089813;28;20197;-71
2022/09/02 06:51:46;;;;;;;14.50;8.75;;;23.50;99.90;;;;;;5081822;28;20194;-71
2022/09/02 06:54:17;;;;;;;15.18;6.85;;;23.60;99.90;;;;;;5122621;28;20216;-71
2022/09/02 06:56:45;;;;;;;12.02;7.90;;;23.80;99.90;;;;;;5122182;27;20205;-71
2022/09/02 06:59:11;;;;;;;14.35;8.13;;;23.90;99.90;;;;;;5104503;28;20360;-71
2022/09/02 07:01:38;;;;;;;12.68;7.97;;;23.90;99.90;;;;;;5099458;28;20186;-71
2022/09/02 07:06:53;;;;;;;10.05;7.65;;;24.10;99.90;;;;;;5080537;28;20179;-71
2022/09/02 07:09:29;;;;;;;12.70;7.57;;;24.10;99.90;;;;;;5072547;28;20183;-71
2022/09/02 07:11:59;;;;;;;9.70;6.85;;;24.20;99.90;;;;;;5086399;28;20189;-71
2022/09/02 07:14:27;;;;;;;14.65;7.03;;;24.30;99.90;;;;;;5088304;28;20189;-70
2022/09/02 07:16:56;;;;;;;11.88;7.03;;;24.50;99.90;;;;;;5081109;28;20221;-71
2022/09/02 07:19:24;;;;;;;14.65;8.00;;;24.60;99.90;;;;;;5078935;28;20532;-71
2022/09/02 07:21:51;;;;;;;10.75;6.88;;;24.70;99.90;;;;;;5120410;27;20275;-71
2022/09/02 07:24:18;;;;;;;11.20;6.75;;;24.90;99.90;;;;;;5083085;28;20648;-71
2022/09/02 07:26:46;;;;;;;11.73;6.30;;;24.90;99.90;;;;;;5119119;27;20696;-71
2022/09/02 07:29:13;;;;;;;15.45;7.75;;;24.90;99.90;;;;;;5089449;28;20194;-71
2022/09/02 07:31:45;;;;;;;19.45;9.38;;;25.10;99.90;;;;;;5121154;27;20190;-71
2022/09/02 07:34:13;;;;;;;19.25;9.02;;;25.30;99.90;;;;;;5077836;28;20658;-71
2022/09/02 07:36:40;;;;;;;17.13;8.55;;;25.40;99.90;;;;;;5091250;28;20228;-71
2022/09/02 07:39:10;;;;;;;16.33;8.43;;;25.40;99.90;;;;;;5086228;28;21009;-71
2022/09/02 07:41:39;;;;;;;16.42;9.45;;;25.50;99.90;;;;;;5071529;28;20182;-71
2022/09/02 07:44:06;;;;;;;17.88;9.70;;;25.80;99.90;;;;;;5087854;28;20189;-70
2022/09/02 07:46:34;;;;;;;21.90;9.68;;;26.00;99.90;;;;;;5093266;28;20186;-70
2022/09/02 07:49:06;;;;;;;16.58;9.95;;;26.00;99.90;;;;;;5087298;28;20226;-71
2022/09/02 07:51:33;;;;;;;19.17;10.25;;;26.10;99.90;;;;;;5078987;28;20182;-70
2022/09/02 07:54:02;;;;;;;13.38;9.25;;;26.10;99.90;;;;;;5096859;28;20214;-70
2022/09/02 07:56:30;;;;;;;24.92;10.35;;;26.10;99.90;;;;;;5085492;28;20208;-70
2022/09/02 07:58:56;;;;;;;15.95;9.90;;;26.20;99.90;;;;;;5073893;28;20193;-70
2022/09/02 08:01:24;;;;;;;18.60;9.93;;;26.20;99.90;;;;;;5071040;28;20257;-70
2022/09/02 08:03:52;;;;;;;23.10;9.85;;;26.30;99.90;;;;;;5138818;27;20716;-70
2022/09/02 08:06:22;;;;;;;19.17;9.98;;;26.30;99.90;;;;;;5113008;28;20250;-70
2022/09/02 08:08:49;;;;;;;13.75;9.85;;;26.40;99.90;;;;;;5094128;28;20842;-70
2022/09/02 08:11:16;;;;;;;12.48;9.48;;;26.40;99.90;;;;;;5084181;28;20604;-70
2022/09/02 08:13:42;;;;;;;16.73;9.98;;;26.40;99.90;;;;;;5108120;28;20186;-69
2022/09/02 08:16:09;;;;;;;15.52;9.88;;;26.50;99.90;;;;;;5087556;28;20223;-70
2022/09/02 08:18:35;;;;;;;12.43;9.15;;;26.60;99.90;;;;;;5071696;28;20640;-70
2022/09/02 08:21:02;;;;;;;15.90;9.63;;;26.70;99.90;;;;;;5090375;28;20205;-70
2022/09/02 08:23:29;;;;;;;16.73;9.35;;;26.80;99.90;;;;;;5094786;28;20194;-70
2022/09/02 08:25:59;;;;;;;13.20;9.50;;;26.80;99.90;;;;;;5099413;28;20889;-71
2022/09/02 08:28:30;;;;;;;19.90;9.82;;;26.80;99.90;;;;;;5089168;28;20827;-70
2022/09/02 08:30:57;;;;;;;14.98;9.02;;;26.90;99.90;;;;;;5079540;28;20270;-70
2022/09/02 08:33:24;;;;;;;16.20;9.45;;;27.00;99.90;;;;;;5085302;28;20186;-70
2022/09/02 08:35:50;;;;;;;16.23;9.57;;;27.20;99.90;;;;;;5090330;28;20193;-70
2022/09/02 08:38:17;;;;;;;21.10;9.65;;;27.20;99.90;;;;;;5089185;28;20186;-70
2022/09/02 08:40:44;;;;;;;12.93;8.93;;;27.20;99.90;;;;;;5068703;28;20186;-70
2022/09/02 08:43:43;;;;;;;15.30;9.63;;;27.30;99.90;;;;;;5089877;28;20197;-70
2022/09/02 08:46:15;;;;;;;17.40;9.70;;;27.30;99.90;;;;;;5087072;28;20206;-71
2022/09/02 08:49:03;;;;;;;15.63;9.23;;;27.30;99.90;;;;;;5091116;28;20194;-70
2022/09/02 08:51:40;;;;;;;18.52;9.32;;;27.50;99.90;;;;;;5092046;28;20194;-70
2022/09/02 08:54:41;;;;;;;14.77;9.45;;;27.50;99.90;;;;;;5087860;28;20710;-70
2022/09/02 08:57:09;;;;;;;14.18;8.48;;;27.60;99.90;;;;;;5066122;28;20226;-70
2022/09/02 08:59:38;;;;;;;23.40;10.07;;;27.60;99.90;;;;;;5086035;28;20216;-70
2022/09/02 09:02:25;;;;;;;15.95;9.20;;;27.90;99.90;;;;;;5092010;28;20635;-71
2022/09/02 09:05:22;;;;;;;18.55;9.88;;;27.80;99.90;;;;;;5090790;28;20178;-70
2022/09/02 09:08:33;;;;;;;19.35;10.07;;;27.80;99.90;;;;;;5104973;28;20552;-68
2022/09/02 09:11:38;;;;;;;13.85;8.48;;;27.80;99.90;;;;;;5090722;28;20620;-71
2022/09/02 09:14:32;;;;;;;14.15;9.23;;;28.10;99.90;;;;;;5091124;28;20583;-69
2022/09/02 09:17:08;;;;;;;18.02;9.20;;;28.20;99.90;;;;;;5122163;27;20206;-69
2022/09/02 09:19:54;;;;;;;14.88;8.70;;;28.30;99.90;;;;;;5097779;28;20194;-70
2022/09/02 09:22:36;;;;;;;13.25;8.82;;;28.20;99.90;;;;;;5115537;27;20595;-69
2022/09/02 09:25:14;;;;;;;12.07;7.97;;;28.40;99.90;;;;;;5083121;28;20183;-68
2022/09/02 09:27:44;;;;;;;15.52;8.13;;;28.50;99.90;;;;;;5081428;28;20186;-69
2022/09/02 09:30:12;;;;;;;13.68;7.85;;;28.60;99.90;;;;;;5073918;28;20190;-69
2022/09/02 09:32:58;;;;;;;17.33;8.43;;;28.70;99.90;;;;;;5100235;28;20282;-71
2022/09/02 09:35:45;;;;;;;17.95;8.70;;;28.80;99.90;;;;;;5099206;28;20198;-68
2022/09/02 09:38:14;;;;;;;13.93;8.10;;;29.00;99.90;;;;;;5083034;28;20267;-68
2022/09/02 09:40:40;;;;;;;13.52;8.50;;;29.00;99.90;;;;;;5080222;28;20194;-69
2022/09/02 09:43:11;;;;;;;11.73;8.00;;;29.20;99.90;;;;;;5096645;28;20186;-69
2022/09/02 09:45:44;;;;;;;13.25;8.15;;;29.30;99.90;;;;;;5090114;28;20231;-69
2022/09/02 09:48:17;;;;;;;18.20;8.38;;;29.30;99.90;;;;;;5083175;28;20199;-69
2022/09/02 09:50:47;;;;;;;17.85;8.55;;;29.30;99.90;;;;;;5086184;28;20214;-68
2022/09/02 09:53:19;;;;;;;17.23;8.63;;;29.40;99.90;;;;;;5069073;28;20194;-69
2022/09/02 09:56:04;;;;;;;17.55;8.10;;;29.50;99.90;;;;;;5117367;27;20183;-69
2022/09/02 09:58:39;;;;;;;14.40;7.47;;;29.80;99.90;;;;;;5102229;28;20328;-69
2022/09/02 10:01:23;;;;;;;14.40;8.25;;;30.00;99.90;;;;;;5088395;28;20178;-68
2022/09/02 10:03:59;;;;;;;14.57;8.40;;;29.80;99.90;;;;;;5123306;27;20476;-70
2022/09/02 10:06:32;;;;;;;17.05;8.30;;;29.70;99.90;;;;;;5122776;27;20185;-70
2022/09/02 10:09:13;;;;;;;18.58;8.55;;;30.00;99.90;;;;;;5105500;28;20206;-69
2022/09/02 10:11:55;;;;;;;16.38;8.20;;;30.00;99.90;;;;;;5109437;28;20639;-69
2022/09/02 10:14:24;;;;;;;12.23;7.85;;;30.30;99.90;;;;;;5086721;28;20187;-69
2022/09/02 10:17:36;;;;;;;13.73;8.40;;;30.60;99.90;;;;;;5078761;28;20909;-71
2022/09/02 10:20:30;;;;;;;19.10;8.15;;;31.60;99.90;;;;;;5064757;28;20510;-70
2022/09/02 10:23:43;;;;;;;15.30;8.55;;;31.80;99.90;;;;;;5084548;28;20273;-70
2022/09/02 10:26:48;;;;;;;18.88;9.43;;;31.00;99.90;;;;;;5086834;28;20181;-71
2022/09/02 10:29:42;;;;;;;12.40;8.48;;;30.80;99.90;;;;;;5052189;28;20545;-70
2022/09/02 10:32:42;;;;;;;17.55;7.72;;;30.40;99.90;;;;;;5087314;28;20193;-69
2022/09/02 10:35:39;;;;;;;15.15;8.15;;;30.40;99.90;;;;;;5087761;28;20241;-69
2022/09/02 10:38:45;;;;;;;15.98;8.10;;;30.30;99.90;;;;;;5095406;28;20667;-69
2022/09/02 10:41:31;;;;;;;16.77;8.60;;;30.20;99.90;;;;;;5100563;28;20189;-70
2022/09/02 10:44:19;;;;;;;15.95;8.52;;;30.20;99.90;;;;;;5070213;28;20928;-70
2022/09/02 10:47:16;;;;;;;12.57;8.05;;;30.20;99.90;;;;;;5089799;28;20212;-71
2022/09/02 10:50:12;;;;;;;17.38;9.00;;;30.10;99.90;;;;;;5051372;28;20645;-71
2022/09/02 10:53:22;;;;;;;13.77;8.05;;;30.10;99.90;;;;;;5086738;28;20209;-70
2022/09/02 10:56:16;;;;;;;16.42;8.90;;;30.00;99.90;;;;;;5087743;28;20612;-70
2022/09/02 10:59:00;;;;;;;12.98;8.63;;;29.90;99.90;;;;;;5085731;28;20190;-70
2022/09/02 11:01:36;;;;;;;14.60;8.88;;;29.90;99.90;;;;;;5120041;28;20185;-70
2022/09/02 11:04:08;;;;;;;17.95;8.90;;;29.90;99.90;;;;;;5107902;28;20217;-70
2022/09/02 11:06:42;;;;;;;13.30;8.57;;;29.70;99.90;;;;;;5108731;28;20203;-70
2022/09/02 11:09:27;;;;;;;16.33;8.50;;;29.70;99.90;;;;;;5090322;28;20197;-70
2022/09/02 11:12:15;;;;;;;16.80;8.75;;;29.80;99.90;;;;;;5088202;28;20190;-70
2022/09/02 11:15:11;;;;;;;15.73;9.48;;;29.90;99.90;;;;;;5111581;27;20198;-71
2022/09/02 11:17:51;;;;;;;14.40;9.05;;;29.80;99.90;;;;;;5081303;28;20216;-70
2022/09/02 11:20:45;;;;;;;15.55;8.90;;;29.70;99.90;;;;;;5092491;28;20840;-70
2022/09/02 11:23:49;;;;;;;13.10;9.20;;;29.70;99.90;;;;;;5071383;28;20171;-71
2022/09/02 11:26:22;;;;;;;15.85;8.40;;;29.50;99.90;;;;;;5073048;28;20181;-71
2022/09/02 11:29:03;;;;;;;15.27;9.13;;;29.50;99.90;;;;;;5072999;28;20245;-70
2022/09/02 11:31:46;;;;;;;15.35;9.43;;;29.50;99.90;;;;;;5074968;28;20264;-70
2022/09/02 11:34:36;;;;;;;15.48;9.70;;;29.50;99.90;;;;;;5092223;28;20200;-71
2022/09/02 11:37:06;;;;;;;17.75;10.05;;;29.50;99.90;;;;;;5083228;28;20552;-71
2022/09/02 11:39:48;;;;;;;13.00;9.48;;;29.50;99.90;;;;;;5080004;28;20259;-71
2022/09/02 11:42:20;;;;;;;16.77;8.57;;;29.40;99.90;;;;;;5080575;28;20212;-71
2022/09/02 11:45:33;;;;;;;20.25;9.77;;;29.40;99.90;;;;;;5080594;28;20706;-71
2022/09/02 11:48:18;;;;;;;17.30;10.45;;;29.40;99.90;;;;;;5118254;27;20681;-71
2022/09/02 11:51:16;;;;;;;13.98;10.02;;;29.30;99.90;;;;;;5081994;28;20273;-71
2022/09/02 11:53:46;;;;;;;17.90;10.43;;;29.40;99.90;;;;;;5101852;28;20209;-70
2022/09/02 11:56:29;;;;;;;15.55;9.65;;;29.40;99.90;;;;;;5083427;28;20178;-71
2022/09/02 11:58:56;;;;;;;13.32;9.35;;;29.40;99.90;;;;;;5087693;28;20185;-71
2022/09/02 12:01:39;;;;;;;16.90;9.48;;;29.30;99.90;;;;;;5080713;28;20197;-71
2022/09/02 12:04:19;;;;;;;14.27;10.15;;;29.40;99.90;;;;;;5092527;28;20278;-71
2022/09/02 12:07:05;;;;;;;15.50;10.25;;;29.40;99.90;;;;;;5084452;28;20220;-71
2022/09/02 12:09:53;;;;;;;19.38;10.57;;;29.20;99.90;;;;;;5080378;28;20194;-71
2022/09/02 12:12:35;;;;;;;14.70;9.05;;;29.30;99.90;;;;;;5077260;28;20182;-71
2022/09/02 12:15:15;;;;;;;43.90;10.70;;;29.20;99.90;;;;;;5081189;28;20215;-73
2022/09/02 12:17:50;;;;;;;17.85;11.05;;;29.20;99.90;;;;;;5078759;28;20210;-71
2022/09/02 12:20:40;;;;;;;17.80;9.35;;;29.10;99.90;;;;;;5084266;28;20182;-71
2022/09/02 12:23:49;;;;;;;15.15;9.18;;;29.10;99.90;;;;;;5096928;28;20299;-71
2022/09/02 12:26:18;;;;;;;17.38;9.15;;;29.20;99.90;;;;;;5107564;28;20231;-71
2022/09/02 12:28:47;;;;;;;17.50;10.60;;;29.00;99.90;;;;;;5064469;28;20190;-71
2022/09/02 12:31:44;;;;;;;17.38;9.73;;;29.20;99.90;;;;;;5080222;28;20368;-70
2022/09/02 12:34:19;;;;;;;19.85;9.27;;;29.20;99.90;;;;;;5122968;27;20243;-71
2022/09/02 12:36:50;;;;;;;15.60;11.15;;;29.00;99.90;;;;;;5094803;28;20204;-71
2022/09/02 12:39:23;;;;;;;17.88;10.63;;;29.00;99.90;;;;;;5100056;28;20182;-71
2022/09/02 12:42:10;;;;;;;17.45;9.50;;;29.00;99.90;;;;;;5084166;28;20708;-70
2022/09/02 12:45:12;;;;;;;17.70;9.40;;;29.10;99.90;;;;;;5084375;28;20624;-71
2022/09/02 12:48:13;;;;;;;13.15;8.82;;;29.00;99.90;;;;;;5071533;28;20244;-71
2022/09/02 12:50:57;;;;;;;15.73;9.98;;;28.80;99.90;;;;;;5120619;27;20585;-70
2022/09/02 12:53:28;;;;;;;22.85;10.27;;;28.90;99.90;;;;;;5101635;28;20189;-70
2022/09/02 12:56:02;;;;;;;17.30;9.80;;;28.90;99.90;;;;;;5082684;28;20195;-71
2022/09/02 12:58:44;;;;;;;14.13;10.00;;;29.00;99.90;;;;;;5088208;28;20208;-70
2022/09/02 13:01:52;;;;;;;19.73;8.98;;;29.00;99.90;;;;;;5090146;28;20651;-71
2022/09/02 13:04:45;;;;;;;14.73;9.65;;;28.80;99.90;;;;;;5073720;28;20186;-71
2022/09/02 13:07:45;;;;;;;17.33;8.68;;;28.90;99.90;;;;;;5069120;28;20284;-71